sensor_id;sensor_type;location;lat;lon;timestamp;pressure;altitude;pressure_sealevel;temperature;humidity
70343;BME280;57767;42.068;24.752;2023-03-04T00:00:40;98999.00;;;5.70;82.37
70343;BME280;57767;42.068;24.752;2023-03-04T00:01:46;98993.00;;;5.61;82.98
70343;BME280;57767;42.068;24.752;2023-03-04T00:02:48;98989.38;;;5.62;83.15
70343;BME280;57767;42.068;24.752;2023-03-04T00:03:49;98990.25;;;5.55;83.80
70343;BME280;57767;42.068;24.752;2023-03-04T00:04:51;98990.94;;;5.49;83.77
70343;BME280;57767;42.068;24.752;2023-03-04T00:05:53;98999.94;;;5.46;84.22
70343;BME280;57767;42.068;24.752;2023-03-04T00:06:54;98983.13;;;5.40;84.44
70343;BME280;57767;42.068;24.752;2023-03-04T00:07:56;98982.09;;;5.50;84.17
70343;BME280;57767;42.068;24.752;2023-03-04T00:08:58;98982.56;;;5.53;84.01
70343;BME280;57767;42.068;24.752;2023-03-04T00:10:00;98979.78;;;5.55;84.08
70343;BME280;57767;42.068;24.752;2023-03-04T00:11:02;98989.22;;;5.64;83.67
70343;BME280;57767;42.068;24.752;2023-03-04T00:12:04;98977.41;;;5.68;83.73
70343;BME280;57767;42.068;24.752;2023-03-04T00:13:08;98982.28;;;5.71;83.92
70343;BME280;57767;42.068;24.752;2023-03-04T00:14:10;98960.56;;;5.62;83.53
70343;BME280;57767;42.068;24.752;2023-03-04T00:15:11;98965.59;;;5.72;83.54
70343;BME280;57767;42.068;24.752;2023-03-04T00:16:13;98969.16;;;5.79;83.03
70343;BME280;57767;42.068;24.752;2023-03-04T00:17:15;98974.06;;;5.82;83.39
70343;BME280;57767;42.068;24.752;2023-03-04T00:18:17;98963.75;;;5.81;83.03
70343;BME280;57767;42.068;24.752;2023-03-04T00:19:19;98959.94;;;5.83;82.80
70343;BME280;57767;42.068;24.752;2023-03-04T00:20:21;98961.91;;;5.89;83.26
70343;BME280;57767;42.068;24.752;2023-03-04T00:21:23;98978.09;;;5.93;82.69
70343;BME280;57767;42.068;24.752;2023-03-04T00:22:25;98966.78;;;5.92;82.82
70343;BME280;57767;42.068;24.752;2023-03-04T00:23:27;98964.00;;;5.94;82.19
70343;BME280;57767;42.068;24.752;2023-03-04T00:24:29;98967.44;;;5.94;81.95
70343;BME280;57767;42.068;24.752;2023-03-04T00:25:30;98970.41;;;5.91;82.28
70343;BME280;57767;42.068;24.752;2023-03-04T00:26:32;98968.78;;;5.90;82.08
70343;BME280;57767;42.068;24.752;2023-03-04T00:27:34;98968.44;;;5.93;82.04
70343;BME280;57767;42.068;24.752;2023-03-04T00:28:36;98960.25;;;5.88;81.59
70343;BME280;57767;42.068;24.752;2023-03-04T00:29:37;98962.72;;;5.90;81.93
70343;BME280;57767;42.068;24.752;2023-03-04T00:30:39;98972.97;;;5.99;81.54
70343;BME280;57767;42.068;24.752;2023-03-04T00:31:41;98978.19;;;5.99;81.50
70343;BME280;57767;42.068;24.752;2023-03-04T00:32:43;98975.22;;;6.02;81.94
70343;BME280;57767;42.068;24.752;2023-03-04T00:33:44;98980.31;;;6.04;81.36
70343;BME280;57767;42.068;24.752;2023-03-04T00:34:46;98975.88;;;6.04;81.42
70343;BME280;57767;42.068;24.752;2023-03-04T00:35:48;98981.56;;;6.08;81.32
70343;BME280;57767;42.068;24.752;2023-03-04T00:36:50;98969.00;;;6.03;81.18
70343;BME280;57767;42.068;24.752;2023-03-04T00:37:52;98973.53;;;6.09;80.83
70343;BME280;57767;42.068;24.752;2023-03-04T00:38:54;98978.44;;;6.13;80.81
70343;BME280;57767;42.068;24.752;2023-03-04T00:39:55;98976.78;;;6.11;80.73
70343;BME280;57767;42.068;24.752;2023-03-04T00:40:57;98967.66;;;6.07;80.76
70343;BME280;57767;42.068;24.752;2023-03-04T00:41:59;98984.31;;;6.15;80.77
70343;BME280;57767;42.068;24.752;2023-03-04T00:43:01;98983.31;;;6.16;80.85
70343;BME280;57767;42.068;24.752;2023-03-04T00:44:04;98988.22;;;6.19;80.71
70343;BME280;57767;42.068;24.752;2023-03-04T00:45:06;98990.03;;;6.18;80.30
70343;BME280;57767;42.068;24.752;2023-03-04T00:46:08;98984.13;;;6.16;80.48
70343;BME280;57767;42.068;24.752;2023-03-04T00:47:10;98978.06;;;6.16;80.43
70343;BME280;57767;42.068;24.752;2023-03-04T00:48:12;98990.66;;;6.20;80.47
70343;BME280;57767;42.068;24.752;2023-03-04T00:49:14;98980.56;;;6.09;80.28
70343;BME280;57767;42.068;24.752;2023-03-04T00:50:15;98990.38;;;6.15;80.15
70343;BME280;57767;42.068;24.752;2023-03-04T00:51:17;98977.09;;;6.17;80.49
70343;BME280;57767;42.068;24.752;2023-03-04T00:52:19;98980.97;;;6.21;80.73
70343;BME280;57767;42.068;24.752;2023-03-04T00:53:21;98986.22;;;6.21;80.59
70343;BME280;57767;42.068;24.752;2023-03-04T00:54:24;98983.41;;;6.22;80.68
70343;BME280;57767;42.068;24.752;2023-03-04T00:55:26;98987.56;;;6.17;80.97
70343;BME280;57767;42.068;24.752;2023-03-04T00:56:28;98984.81;;;6.10;81.54
70343;BME280;57767;42.068;24.752;2023-03-04T00:57:30;98976.38;;;6.00;81.27
70343;BME280;57767;42.068;24.752;2023-03-04T00:58:31;98979.34;;;5.97;81.57
70343;BME280;57767;42.068;24.752;2023-03-04T00:59:33;98968.78;;;5.90;81.84
70343;BME280;57767;42.068;24.752;2023-03-04T01:00:35;98970.41;;;5.91;82.19
70343;BME280;57767;42.068;24.752;2023-03-04T01:01:37;98977.44;;;5.91;82.40
70343;BME280;57767;42.068;24.752;2023-03-04T01:02:38;98977.63;;;5.89;82.31
70343;BME280;57767;42.068;24.752;2023-03-04T01:03:40;98983.16;;;5.86;82.48
70343;BME280;57767;42.068;24.752;2023-03-04T01:04:42;98980.91;;;5.83;82.63
70343;BME280;57767;42.068;24.752;2023-03-04T01:05:44;98976.94;;;5.87;83.13
70343;BME280;57767;42.068;24.752;2023-03-04T01:06:46;98977.63;;;5.89;83.00
70343;BME280;57767;42.068;24.752;2023-03-04T01:07:48;98970.88;;;5.95;82.69
70343;BME280;57767;42.068;24.752;2023-03-04T01:08:49;98980.16;;;5.97;82.73
70343;BME280;57767;42.068;24.752;2023-03-04T01:09:51;98972.69;;;5.94;82.73
70343;BME280;57767;42.068;24.752;2023-03-04T01:10:53;98979.50;;;6.03;82.48
70343;BME280;57767;42.068;24.752;2023-03-04T01:11:55;98975.53;;;6.07;81.90
70343;BME280;57767;42.068;24.752;2023-03-04T01:12:57;98972.72;;;6.09;81.91
70343;BME280;57767;42.068;24.752;2023-03-04T01:13:58;98971.44;;;6.05;82.31
70343;BME280;57767;42.068;24.752;2023-03-04T01:15:00;98964.63;;;5.96;81.78
70343;BME280;57767;42.068;24.752;2023-03-04T01:16:02;98964.09;;;6.00;82.45
70343;BME280;57767;42.068;24.752;2023-03-04T01:17:05;98972.63;;;6.02;81.95
70343;BME280;57767;42.068;24.752;2023-03-04T01:18:07;98966.31;;;5.89;82.42
70343;BME280;57767;42.068;24.752;2023-03-04T01:19:09;98971.22;;;5.84;82.76
70343;BME280;57767;42.068;24.752;2023-03-04T01:20:11;98976.19;;;5.79;83.30
70343;BME280;57767;42.068;24.752;2023-03-04T01:21:13;98977.34;;;5.76;83.59
70343;BME280;57767;42.068;24.752;2023-03-04T01:22:15;98965.06;;;5.76;83.43
70343;BME280;57767;42.068;24.752;2023-03-04T01:23:19;98966.06;;;5.75;83.52
70343;BME280;57767;42.068;24.752;2023-03-04T01:24:21;98966.97;;;5.83;83.99
70343;BME280;57767;42.068;24.752;2023-03-04T01:25:23;98964.34;;;5.83;83.68
70343;BME280;57767;42.068;24.752;2023-03-04T01:26:24;98963.53;;;5.90;83.92
70343;BME280;57767;42.068;24.752;2023-03-04T01:27:26;98968.88;;;5.97;83.82
70343;BME280;57767;42.068;24.752;2023-03-04T01:28:28;98968.69;;;5.98;83.30
70343;BME280;57767;42.068;24.752;2023-03-04T01:29:30;98967.88;;;5.98;83.38
70343;BME280;57767;42.068;24.752;2023-03-04T01:30:32;98969.34;;;6.00;83.66
70343;BME280;57767;42.068;24.752;2023-03-04T01:31:34;98966.91;;;5.99;83.13
70343;BME280;57767;42.068;24.752;2023-03-04T01:32:35;98965.16;;;5.91;83.48
70343;BME280;57767;42.068;24.752;2023-03-04T01:33:37;98971.66;;;5.95;83.08
70343;BME280;57767;42.068;24.752;2023-03-04T01:34:39;98974.50;;;5.94;83.53
70343;BME280;57767;42.068;24.752;2023-03-04T01:35:41;98961.56;;;5.92;83.48
70343;BME280;57767;42.068;24.752;2023-03-04T01:36:43;98953.25;;;5.81;83.60
70343;BME280;57767;42.068;24.752;2023-03-04T01:37:44;98965.81;;;5.85;83.42
70343;BME280;57767;42.068;24.752;2023-03-04T01:38:46;98946.22;;;5.81;84.04
70343;BME280;57767;42.068;24.752;2023-03-04T01:39:48;98959.28;;;5.89;84.11
70343;BME280;57767;42.068;24.752;2023-03-04T01:40:50;98962.03;;;5.88;83.47
70343;BME280;57767;42.068;24.752;2023-03-04T01:41:52;98941.97;;;5.80;83.71
70343;BME280;57767;42.068;24.752;2023-03-04T01:42:54;98949.44;;;5.83;83.73
70343;BME280;57767;42.068;24.752;2023-03-04T01:43:57;98946.00;;;5.83;84.44
70343;BME280;57767;42.068;24.752;2023-03-04T01:45:03;98946.81;;;5.91;83.82
70343;BME280;57767;42.068;24.752;2023-03-04T01:46:05;98941.03;;;5.96;84.04
70343;BME280;57767;42.068;24.752;2023-03-04T01:47:08;98952.34;;;5.96;83.43
70343;BME280;57767;42.068;24.752;2023-03-04T01:48:11;98914.78;;;5.81;83.91
70343;BME280;57767;42.068;24.752;2023-03-04T01:49:14;98945.94;;;5.99;83.48
70343;BME280;57767;42.068;24.752;2023-03-04T01:51:22;98946.47;;;5.94;83.90
70343;BME280;57767;42.068;24.752;2023-03-04T01:52:26;98936.50;;;5.90;84.00
70343;BME280;57767;42.068;24.752;2023-03-04T01:53:29;98941.41;;;5.93;84.02
70343;BME280;57767;42.068;24.752;2023-03-04T01:54:31;98949.72;;;5.96;84.26
70343;BME280;57767;42.068;24.752;2023-03-04T01:55:33;98937.81;;;5.94;84.17
70343;BME280;57767;42.068;24.752;2023-03-04T01:56:37;98944.44;;;6.04;83.99
70343;BME280;57767;42.068;24.752;2023-03-04T01:57:39;98947.69;;;6.06;83.85
70343;BME280;57767;42.068;24.752;2023-03-04T01:58:41;98946.16;;;6.12;84.01
70343;BME280;57767;42.068;24.752;2023-03-04T01:59:44;98944.00;;;6.16;83.86
70343;BME280;57767;42.068;24.752;2023-03-04T02:00:46;98943.25;;;6.07;83.12
70343;BME280;57767;42.068;24.752;2023-03-04T02:01:54;98945.69;;;6.08;83.45
70343;BME280;57767;42.068;24.752;2023-03-04T02:03:00;98954.91;;;6.04;83.60
70343;BME280;57767;42.068;24.752;2023-03-04T02:04:03;98953.28;;;6.03;83.56
70343;BME280;57767;42.068;24.752;2023-03-04T02:05:05;98948.38;;;6.00;83.60
70343;BME280;57767;42.068;24.752;2023-03-04T02:06:07;98946.47;;;5.94;83.77
70343;BME280;57767;42.068;24.752;2023-03-04T02:07:09;98945.13;;;5.98;83.34
70343;BME280;57767;42.068;24.752;2023-03-04T02:08:11;98942.31;;;6.00;83.44
70343;BME280;57767;42.068;24.752;2023-03-04T02:09:15;98946.41;;;6.02;83.33
70343;BME280;57767;42.068;24.752;2023-03-04T02:10:18;98933.28;;;6.02;83.08
70343;BME280;57767;42.068;24.752;2023-03-04T02:11:20;98943.59;;;6.04;83.06
70343;BME280;57767;42.068;24.752;2023-03-04T02:12:21;98936.09;;;6.01;83.35
70343;BME280;57767;42.068;24.752;2023-03-04T02:13:23;98929.84;;;6.02;83.33
70343;BME280;57767;42.068;24.752;2023-03-04T02:14:25;98939.91;;;6.13;83.18
70343;BME280;57767;42.068;24.752;2023-03-04T02:15:28;98937.13;;;6.15;82.96
70343;BME280;57767;42.068;24.752;2023-03-04T02:16:31;98936.59;;;6.19;82.57
70343;BME280;57767;42.068;24.752;2023-03-04T02:17:33;98936.41;;;6.21;82.28
70343;BME280;57767;42.068;24.752;2023-03-04T02:18:35;98936.03;;;6.24;82.11
70343;BME280;57767;42.068;24.752;2023-03-04T02:20:50;98935.41;;;6.22;82.02
70343;BME280;57767;42.068;24.752;2023-03-04T02:21:55;98925.91;;;6.21;82.10
70343;BME280;57767;42.068;24.752;2023-03-04T02:25:12;98915.16;;;6.16;81.93
70343;BME280;57767;42.068;24.752;2023-03-04T02:26:22;98915.41;;;6.21;81.70
70343;BME280;57767;42.068;24.752;2023-03-04T02:27:25;98914.44;;;6.22;82.16
70343;BME280;57767;42.068;24.752;2023-03-04T02:28:27;98922.59;;;6.27;82.23
70343;BME280;57767;42.068;24.752;2023-03-04T02:29:29;98919.31;;;6.25;81.61
70343;BME280;57767;42.068;24.752;2023-03-04T02:30:30;98906.22;;;6.25;81.87
70343;BME280;57767;42.068;24.752;2023-03-04T02:31:33;98912.81;;;6.35;81.96
70343;BME280;57767;42.068;24.752;2023-03-04T02:32:36;98908.78;;;6.33;81.33
70343;BME280;57767;42.068;24.752;2023-03-04T02:33:38;98925.69;;;6.45;81.58
70343;BME280;57767;42.068;24.752;2023-03-04T02:34:45;98917.63;;;6.46;81.23
70343;BME280;57767;42.068;24.752;2023-03-04T02:35:47;98919.91;;;6.50;81.49
70343;BME280;57767;42.068;24.752;2023-03-04T02:36:52;98916.47;;;6.49;81.04
70343;BME280;57767;42.068;24.752;2023-03-04T02:37:54;98914.47;;;6.51;81.17
70343;BME280;57767;42.068;24.752;2023-03-04T02:39:02;98921.00;;;6.55;81.32
70343;BME280;57767;42.068;24.752;2023-03-04T02:40:05;98918.19;;;6.57;80.89
70343;BME280;57767;42.068;24.752;2023-03-04T02:41:13;98896.75;;;6.53;81.16
70343;BME280;57767;42.068;24.752;2023-03-04T02:42:16;98904.97;;;6.50;81.16
70343;BME280;57767;42.068;24.752;2023-03-04T02:43:19;98906.69;;;6.43;81.47
70343;BME280;57767;42.068;24.752;2023-03-04T02:44:29;98904.34;;;6.48;81.39
70343;BME280;57767;42.068;24.752;2023-03-04T02:45:44;98907.59;;;6.50;81.06
70343;BME280;57767;42.068;24.752;2023-03-04T02:46:47;98902.00;;;6.53;81.09
70343;BME280;57767;42.068;24.752;2023-03-04T02:47:49;98898.91;;;6.50;80.94
70343;BME280;57767;42.068;24.752;2023-03-04T02:48:51;98907.72;;;6.57;80.55
70343;BME280;57767;42.068;24.752;2023-03-04T02:49:53;98903.63;;;6.54;80.77
70343;BME280;57767;42.068;24.752;2023-03-04T02:50:55;98904.44;;;6.55;80.94
70343;BME280;57767;42.068;24.752;2023-03-04T02:52:06;98900.00;;;6.55;80.75
70343;BME280;57767;42.068;24.752;2023-03-04T02:53:08;98913.75;;;6.57;80.48
70343;BME280;57767;42.068;24.752;2023-03-04T02:54:19;98923.34;;;6.65;80.45
70343;BME280;57767;42.068;24.752;2023-03-04T02:55:21;98909.75;;;6.61;80.32
70343;BME280;57767;42.068;24.752;2023-03-04T02:56:23;98919.44;;;6.61;80.22
70343;BME280;57767;42.068;24.752;2023-03-04T02:57:24;98914.03;;;6.62;79.81
70343;BME280;57767;42.068;24.752;2023-03-04T02:58:26;98924.34;;;6.64;79.57
70343;BME280;57767;42.068;24.752;2023-03-04T02:59:28;98911.41;;;6.62;79.78
70343;BME280;57767;42.068;24.752;2023-03-04T03:00:30;98909.94;;;6.60;79.77
70343;BME280;57767;42.068;24.752;2023-03-04T03:01:32;98922.06;;;6.61;79.29
70343;BME280;57767;42.068;24.752;2023-03-04T03:02:34;98928.78;;;6.63;79.14
70343;BME280;57767;42.068;24.752;2023-03-04T03:03:36;98925.44;;;6.55;79.11
70343;BME280;57767;42.068;24.752;2023-03-04T03:04:38;98927.38;;;6.38;78.92
70343;BME280;57767;42.068;24.752;2023-03-04T03:05:41;98942.94;;;6.39;78.91
70343;BME280;57767;42.068;24.752;2023-03-04T03:06:43;98939.50;;;6.39;78.52
70343;BME280;57767;42.068;24.752;2023-03-04T03:07:45;98941.66;;;6.35;78.58
70343;BME280;57767;42.068;24.752;2023-03-04T03:08:46;98943.66;;;6.33;78.50
70343;BME280;57767;42.068;24.752;2023-03-04T03:09:48;98948.63;;;6.28;78.24
70343;BME280;57767;42.068;24.752;2023-03-04T03:10:50;98937.41;;;6.20;78.35
70343;BME280;57767;42.068;24.752;2023-03-04T03:11:51;98951.13;;;6.22;78.46
70343;BME280;57767;42.068;24.752;2023-03-04T03:12:53;98943.66;;;6.19;78.21
70343;BME280;57767;42.068;24.752;2023-03-04T03:13:55;98944.00;;;6.16;78.53
70343;BME280;57767;42.068;24.752;2023-03-04T03:14:57;98941.38;;;6.16;78.70
70343;BME280;57767;42.068;24.752;2023-03-04T03:15:59;98948.06;;;6.18;78.57
70343;BME280;57767;42.068;24.752;2023-03-04T03:17:01;98954.13;;;6.19;78.21
70343;BME280;57767;42.068;24.752;2023-03-04T03:18:02;98961.19;;;6.18;77.94
70343;BME280;57767;42.068;24.752;2023-03-04T03:19:04;98955.78;;;6.20;78.00
70343;BME280;57767;42.068;24.752;2023-03-04T03:20:07;98953.31;;;6.18;78.24
70343;BME280;57767;42.068;24.752;2023-03-04T03:21:10;98959.56;;;6.17;78.60
70343;BME280;57767;42.068;24.752;2023-03-04T03:22:11;98950.22;;;6.15;78.54
70343;BME280;57767;42.068;24.752;2023-03-04T03:23:13;98952.84;;;6.15;78.20
70343;BME280;57767;42.068;24.752;2023-03-04T03:24:15;98953.16;;;5.97;78.48
70343;BME280;57767;42.068;24.752;2023-03-04T03:25:17;98943.59;;;5.81;78.83
70343;BME280;57767;42.068;24.752;2023-03-04T03:26:19;98932.88;;;5.68;79.10
70343;BME280;57767;42.068;24.752;2023-03-04T03:27:21;98943.28;;;5.76;79.40
70343;BME280;57767;42.068;24.752;2023-03-04T03:28:22;98936.59;;;5.73;79.94
70343;BME280;57767;42.068;24.752;2023-03-04T03:29:24;98944.28;;;5.75;80.16
70343;BME280;57767;42.068;24.752;2023-03-04T03:30:26;98935.78;;;5.73;80.04
70343;BME280;57767;42.068;24.752;2023-03-04T03:31:28;98945.59;;;5.71;79.58
70343;BME280;57767;42.068;24.752;2023-03-04T03:32:30;98944.75;;;5.56;80.45
70343;BME280;57767;42.068;24.752;2023-03-04T03:33:32;98933.22;;;5.42;81.13
70343;BME280;57767;42.068;24.752;2023-03-04T03:34:34;98930.84;;;5.24;81.59
70343;BME280;57767;42.068;24.752;2023-03-04T03:35:36;98943.25;;;5.30;82.33
70343;BME280;57767;42.068;24.752;2023-03-04T03:36:38;98934.78;;;5.20;82.50
70343;BME280;57767;42.068;24.752;2023-03-04T03:37:39;98921.44;;;5.07;82.68
70343;BME280;57767;42.068;24.752;2023-03-04T03:38:42;98936.16;;;5.08;83.67
70343;BME280;57767;42.068;24.752;2023-03-04T03:39:43;98934.28;;;4.94;83.55
70343;BME280;57767;42.068;24.752;2023-03-04T03:40:45;98936.13;;;4.77;84.60
70343;BME280;57767;42.068;24.752;2023-03-04T03:41:47;98930.44;;;4.65;86.26
70343;BME280;57767;42.068;24.752;2023-03-04T03:42:49;98935.03;;;4.63;87.22
70343;BME280;57767;42.068;24.752;2023-03-04T03:43:50;98932.13;;;4.50;87.26
70343;BME280;57767;42.068;24.752;2023-03-04T03:44:52;98922.81;;;4.48;87.79
70343;BME280;57767;42.068;24.752;2023-03-04T03:45:54;98932.25;;;4.57;88.33
70343;BME280;57767;42.068;24.752;2023-03-04T03:46:56;98930.63;;;4.64;88.21
70343;BME280;57767;42.068;24.752;2023-03-04T03:47:58;98916.91;;;4.54;89.09
70343;BME280;57767;42.068;24.752;2023-03-04T03:49:00;98931.44;;;4.56;88.90
70343;BME280;57767;42.068;24.752;2023-03-04T03:50:03;98931.91;;;4.60;88.65
70343;BME280;57767;42.068;24.752;2023-03-04T03:51:05;98929.31;;;4.68;89.47
70343;BME280;57767;42.068;24.752;2023-03-04T03:52:06;98930.56;;;4.80;88.29
70343;BME280;57767;42.068;24.752;2023-03-04T03:53:09;98923.19;;;4.84;88.76
70343;BME280;57767;42.068;24.752;2023-03-04T03:54:11;98939.31;;;4.95;87.81
70343;BME280;57767;42.068;24.752;2023-03-04T03:55:13;98929.00;;;5.02;87.71
70343;BME280;57767;42.068;24.752;2023-03-04T03:56:15;98927.69;;;5.06;86.65
70343;BME280;57767;42.068;24.752;2023-03-04T03:57:16;98933.03;;;5.13;86.89
70343;BME280;57767;42.068;24.752;2023-03-04T03:58:18;98932.53;;;5.17;85.73
70343;BME280;57767;42.068;24.752;2023-03-04T03:59:20;98922.41;;;5.14;85.15
70343;BME280;57767;42.068;24.752;2023-03-04T04:00:22;98926.44;;;5.25;85.62
70343;BME280;57767;42.068;24.752;2023-03-04T04:01:24;98929.69;;;5.27;84.98
70343;BME280;57767;42.068;24.752;2023-03-04T04:02:26;98931.34;;;5.28;84.09
70343;BME280;57767;42.068;24.752;2023-03-04T04:03:28;98924.78;;;5.24;84.04
70343;BME280;57767;42.068;24.752;2023-03-04T04:04:30;98922.72;;;5.19;84.19
70343;BME280;57767;42.068;24.752;2023-03-04T04:05:31;98926.25;;;5.26;83.84
70343;BME280;57767;42.068;24.752;2023-03-04T04:06:33;98936.22;;;5.31;84.07
70343;BME280;57767;42.068;24.752;2023-03-04T04:07:36;98943.38;;;5.37;83.36
70343;BME280;57767;42.068;24.752;2023-03-04T04:08:38;98935.88;;;5.34;83.21
70343;BME280;57767;42.068;24.752;2023-03-04T04:09:40;98933.88;;;5.36;83.64
70343;BME280;57767;42.068;24.752;2023-03-04T04:10:42;98939.59;;;5.39;82.80
70343;BME280;57767;42.068;24.752;2023-03-04T04:11:44;98936.34;;;5.37;82.84
70343;BME280;57767;42.068;24.752;2023-03-04T04:12:45;98941.41;;;5.39;82.16
70343;BME280;57767;42.068;24.752;2023-03-04T04:13:47;98943.69;;;5.42;82.11
70343;BME280;57767;42.068;24.752;2023-03-04T04:14:49;98942.22;;;5.39;82.00
70343;BME280;57767;42.068;24.752;2023-03-04T04:15:51;98934.72;;;5.36;82.21
70343;BME280;57767;42.068;24.752;2023-03-04T04:16:53;98941.91;;;5.34;82.14
70343;BME280;57767;42.068;24.752;2023-03-04T04:17:55;98936.50;;;5.36;81.81
70343;BME280;57767;42.068;24.752;2023-03-04T04:18:57;98937.16;;;5.38;82.27
70343;BME280;57767;42.068;24.752;2023-03-04T04:19:59;98940.41;;;5.40;82.62
70343;BME280;57767;42.068;24.752;2023-03-04T04:21:01;98944.84;;;5.39;82.22
70343;BME280;57767;42.068;24.752;2023-03-04T04:22:02;98944.03;;;5.39;82.45
70343;BME280;57767;42.068;24.752;2023-03-04T04:23:04;98949.25;;;5.39;81.72
70343;BME280;57767;42.068;24.752;2023-03-04T04:24:06;98945.53;;;5.33;81.59
70343;BME280;57767;42.068;24.752;2023-03-04T04:25:08;98945.19;;;5.36;81.62
70343;BME280;57767;42.068;24.752;2023-03-04T04:26:11;98949.59;;;5.36;81.94
70343;BME280;57767;42.068;24.752;2023-03-04T04:27:13;98947.16;;;5.34;82.42
70343;BME280;57767;42.068;24.752;2023-03-04T04:28:15;98956.81;;;5.34;81.79
70343;BME280;57767;42.068;24.752;2023-03-04T04:29:17;98952.75;;;5.31;82.20
70343;BME280;57767;42.068;24.752;2023-03-04T04:30:18;98949.81;;;5.26;81.84
70343;BME280;57767;42.068;24.752;2023-03-04T04:31:20;98947.69;;;5.30;81.71
70343;BME280;57767;42.068;24.752;2023-03-04T04:32:22;98956.63;;;5.35;82.05
70343;BME280;57767;42.068;24.752;2023-03-04T04:33:25;98947.69;;;5.30;81.54
70343;BME280;57767;42.068;24.752;2023-03-04T04:34:27;98954.34;;;5.32;81.71
70343;BME280;57767;42.068;24.752;2023-03-04T04:35:30;98942.13;;;5.25;82.25
70343;BME280;57767;42.068;24.752;2023-03-04T04:36:32;98947.84;;;5.28;82.12
70343;BME280;57767;42.068;24.752;2023-03-04T04:37:34;98928.94;;;5.18;81.36
70343;BME280;57767;42.068;24.752;2023-03-04T04:38:35;98951.47;;;5.27;81.95
70343;BME280;57767;42.068;24.752;2023-03-04T04:39:38;98947.19;;;5.26;81.89
70343;BME280;57767;42.068;24.752;2023-03-04T04:40:39;98943.47;;;5.21;81.30
70343;BME280;57767;42.068;24.752;2023-03-04T04:41:44;98954.25;;;5.26;81.44
70343;BME280;57767;42.068;24.752;2023-03-04T04:42:46;98953.09;;;5.28;81.18
70343;BME280;57767;42.068;24.752;2023-03-04T04:43:48;98949.81;;;5.26;80.34
70343;BME280;57767;42.068;24.752;2023-03-04T04:44:49;98950.47;;;5.28;80.54
70343;BME280;57767;42.068;24.752;2023-03-04T04:45:52;98943.78;;;5.26;80.11
70343;BME280;57767;42.068;24.752;2023-03-04T04:46:54;98938.22;;;5.21;80.37
70343;BME280;57767;42.068;24.752;2023-03-04T04:47:55;98946.88;;;5.29;80.52
70343;BME280;57767;42.068;24.752;2023-03-04T04:48:58;98941.47;;;5.31;80.27
70343;BME280;57767;42.068;24.752;2023-03-04T04:49:59;98939.53;;;5.25;79.74
70343;BME280;57767;42.068;24.752;2023-03-04T04:51:01;98944.91;;;5.23;79.97
70343;BME280;57767;42.068;24.752;2023-03-04T04:52:03;98954.56;;;5.23;80.62
70343;BME280;57767;42.068;24.752;2023-03-04T04:53:05;98959.00;;;5.22;81.05
70343;BME280;57767;42.068;24.752;2023-03-04T04:54:12;98959.97;;;5.21;80.99
70343;BME280;57767;42.068;24.752;2023-03-04T04:55:15;98955.94;;;5.19;81.27
70343;BME280;57767;42.068;24.752;2023-03-04T04:56:19;98961.16;;;5.19;81.40
70343;BME280;57767;42.068;24.752;2023-03-04T04:57:22;98954.78;;;5.13;81.36
70343;BME280;57767;42.068;24.752;2023-03-04T04:58:24;98958.41;;;5.12;81.47
70343;BME280;57767;42.068;24.752;2023-03-04T04:59:26;98954.13;;;5.11;81.74
70343;BME280;57767;42.068;24.752;2023-03-04T05:00:27;98956.75;;;5.11;82.33
70343;BME280;57767;42.068;24.752;2023-03-04T05:01:29;98959.38;;;5.11;82.22
70343;BME280;57767;42.068;24.752;2023-03-04T05:02:32;98959.53;;;5.10;81.42
70343;BME280;57767;42.068;24.752;2023-03-04T05:03:38;98957.78;;;5.02;81.76
70343;BME280;57767;42.068;24.752;2023-03-04T05:04:40;98947.38;;;4.94;82.20
70343;BME280;57767;42.068;24.752;2023-03-04T05:05:42;98958.78;;;5.01;82.19
70343;BME280;57767;42.068;24.752;2023-03-04T05:06:43;98959.28;;;4.96;81.76
70343;BME280;57767;42.068;24.752;2023-03-04T05:07:45;98965.84;;;4.92;82.59
70343;BME280;57767;42.068;24.752;2023-03-04T05:08:47;98968.13;;;4.87;83.31
70343;BME280;57767;42.068;24.752;2023-03-04T05:09:49;98959.69;;;4.69;83.04
70343;BME280;57767;42.068;24.752;2023-03-04T05:10:51;98960.03;;;4.58;83.68
70343;BME280;57767;42.068;24.752;2023-03-04T05:11:53;98975.88;;;4.64;84.24
70343;BME280;57767;42.068;24.752;2023-03-04T05:12:55;98970.66;;;4.64;84.63
70343;BME280;57767;42.068;24.752;2023-03-04T05:13:57;98971.44;;;4.73;84.19
70343;BME280;57767;42.068;24.752;2023-03-04T05:14:58;98982.06;;;4.72;83.64
70343;BME280;57767;42.068;24.752;2023-03-04T05:16:01;98981.75;;;4.75;84.41
70343;BME280;57767;42.068;24.752;2023-03-04T05:17:03;98957.88;;;4.69;83.99
70343;BME280;57767;42.068;24.752;2023-03-04T05:18:04;98978.63;;;4.79;83.45
70343;BME280;57767;42.068;24.752;2023-03-04T05:19:07;98979.09;;;4.83;83.48
70343;BME280;57767;42.068;24.752;2023-03-04T05:20:09;98972.75;;;4.77;84.13
70343;BME280;57767;42.068;24.752;2023-03-04T05:21:11;98966.06;;;4.75;83.77
70343;BME280;57767;42.068;24.752;2023-03-04T05:22:13;98982.03;;;4.88;83.73
70343;BME280;57767;42.068;24.752;2023-03-04T05:23:14;98975.50;;;4.84;84.56
70343;BME280;57767;42.068;24.752;2023-03-04T05:24:16;98971.78;;;4.78;84.42
70343;BME280;57767;42.068;24.752;2023-03-04T05:25:18;98984.00;;;4.86;84.28
70343;BME280;57767;42.068;24.752;2023-03-04T05:26:20;98992.38;;;4.73;84.84
70343;BME280;57767;42.068;24.752;2023-03-04T05:27:21;98991.09;;;4.61;85.26
70343;BME280;57767;42.068;24.752;2023-03-04T05:28:23;98982.16;;;4.39;85.99
70343;BME280;57767;42.068;24.752;2023-03-04T05:29:25;98983.28;;;4.37;86.39
70343;BME280;57767;42.068;24.752;2023-03-04T05:30:27;98980.00;;;4.35;86.26
70343;BME280;57767;42.068;24.752;2023-03-04T05:31:29;98968.75;;;4.26;86.87
70343;BME280;57767;42.068;24.752;2023-03-04T05:32:31;98984.25;;;4.36;87.51
70343;BME280;57767;42.068;24.752;2023-03-04T05:33:33;98985.41;;;4.41;87.62
70343;BME280;57767;42.068;24.752;2023-03-04T05:34:35;98978.88;;;4.37;87.53